sensor_id;sensor_type;location;lat;lon;timestamp;pressure;altitude;pressure_sealevel;temperature;humidity
48267;BME280;34088;52.232;5.196;2023-07-20T00:01:40;101503.34;;;16.81;77.07
48267;BME280;34088;52.232;5.196;2023-07-20T00:04:06;101471.88;;;16.82;75.74
48267;BME280;34088;52.232;5.196;2023-07-20T00:06:31;101492.63;;;16.85;76.08
48267;BME280;34088;52.232;5.196;2023-07-20T00:08:56;101506.25;;;16.92;75.99
48267;BME280;34088;52.232;5.196;2023-07-20T00:11:26;101492.44;;;16.90;75.34
48267;BME280;34088;52.232;5.196;2023-07-20T00:13:52;101493.88;;;16.95;75.22
48267;BME280;34088;52.232;5.196;2023-07-20T00:16:17;101493.72;;;16.81;76.55
48267;BME280;34088;52.232;5.196;2023-07-20T00:32:19;101499.03;;;16.44;77.97
48267;BME280;34088;52.232;5.196;2023-07-20T00:34:45;101496.75;;;16.55;76.69
48267;BME280;34088;52.232;5.196;2023-07-20T00:37:10;101498.97;;;16.46;77.22
48267;BME280;34088;52.232;5.196;2023-07-20T00:39:35;101492.56;;;16.34;78.26
48267;BME280;34088;52.232;5.196;2023-07-20T00:42:00;101490.06;;;16.31;78.00
48267;BME280;34088;52.232;5.196;2023-07-20T00:44:26;101481.84;;;16.40;77.67
48267;BME280;34088;52.232;5.196;2023-07-20T00:46:51;101488.88;;;16.38;77.10
48267;BME280;34088;52.232;5.196;2023-07-20T00:49:16;101489.44;;;16.26;78.81
48267;BME280;34088;52.232;5.196;2023-07-20T00:51:46;101495.16;;;16.34;77.22
48267;BME280;34088;52.232;5.196;2023-07-20T00:54:12;101490.38;;;16.25;79.32
48267;BME280;34088;52.232;5.196;2023-07-20T00:56:37;101499.34;;;16.20;79.23
48267;BME280;34088;52.232;5.196;2023-07-20T00:59:04;101486.41;;;16.17;78.87
48267;BME280;34088;52.232;5.196;2023-07-20T01:01:30;101479.63;;;16.13;79.92
48267;BME280;34088;52.232;5.196;2023-07-20T01:03:55;101487.47;;;16.13;78.24
48267;BME280;34088;52.232;5.196;2023-07-20T01:06:29;101490.31;;;16.08;80.01
48267;BME280;34088;52.232;5.196;2023-07-20T01:09:19;101487.56;;;16.11;78.70
48267;BME280;34088;52.232;5.196;2023-07-20T01:12:05;101493.28;;;16.01;80.31
48267;BME280;34088;52.232;5.196;2023-07-20T01:14:32;101491.22;;;16.07;78.93
48267;BME280;34088;52.232;5.196;2023-07-20T01:16:58;101494.53;;;16.11;78.68
48267;BME280;34088;52.232;5.196;2023-07-20T01:19:23;101499.13;;;16.06;79.92
48267;BME280;34088;52.232;5.196;2023-07-20T01:21:56;101501.19;;;15.99;80.23
48267;BME280;34088;52.232;5.196;2023-07-20T01:27:18;101491.75;;;15.97;80.69
48267;BME280;34088;52.232;5.196;2023-07-20T01:32:19;101493.00;;;15.88;79.70
48267;BME280;34088;52.232;5.196;2023-07-20T01:34:49;101496.22;;;15.93;80.25
48267;BME280;34088;52.232;5.196;2023-07-20T01:37:17;101499.28;;;15.84;80.69
48267;BME280;34088;52.232;5.196;2023-07-20T01:39:45;101504.91;;;15.75;80.65
48267;BME280;34088;52.232;5.196;2023-07-20T01:42:10;101499.06;;;15.70;80.89
48267;BME280;34088;52.232;5.196;2023-07-20T01:44:37;101493.56;;;15.76;80.11
48267;BME280;34088;52.232;5.196;2023-07-20T01:47:02;101498.06;;;15.73;81.30
48267;BME280;34088;52.232;5.196;2023-07-20T01:49:28;101506.63;;;15.76;80.46
48267;BME280;34088;52.232;5.196;2023-07-20T01:51:53;101506.53;;;15.78;80.21
48267;BME280;34088;52.232;5.196;2023-07-20T01:54:19;101490.97;;;15.76;80.86
48267;BME280;34088;52.232;5.196;2023-07-20T01:56:44;101498.28;;;15.68;80.58
48267;BME280;34088;52.232;5.196;2023-07-20T01:59:09;101505.66;;;15.59;81.08
48267;BME280;34088;52.232;5.196;2023-07-20T02:01:34;101509.25;;;15.56;80.86
48267;BME280;34088;52.232;5.196;2023-07-20T02:03:59;101506.66;;;15.56;81.95
48267;BME280;34088;52.232;5.196;2023-07-20T02:06:25;101502.13;;;15.60;81.44
48267;BME280;34088;52.232;5.196;2023-07-20T02:08:50;101504.03;;;15.56;81.57
48267;BME280;34088;52.232;5.196;2023-07-20T02:11:15;101506.81;;;15.53;81.64
48267;BME280;34088;52.232;5.196;2023-07-20T02:13:40;101508.50;;;15.54;81.05
48267;BME280;34088;52.232;5.196;2023-07-20T02:16:06;101498.97;;;15.53;82.03
48267;BME280;34088;52.232;5.196;2023-07-20T02:18:31;101508.94;;;15.64;80.88
48267;BME280;34088;52.232;5.196;2023-07-20T02:20:56;101509.13;;;15.59;80.54
48267;BME280;34088;52.232;5.196;2023-07-20T02:23:21;101499.03;;;15.52;81.15
48267;BME280;34088;52.232;5.196;2023-07-20T02:25:47;101505.09;;;15.52;80.33
48267;BME280;34088;52.232;5.196;2023-07-20T02:28:13;101501.09;;;15.44;81.93
48267;BME280;34088;52.232;5.196;2023-07-20T02:30:39;101499.41;;;15.43;81.66
48267;BME280;34088;52.232;5.196;2023-07-20T02:33:04;101502.69;;;15.48;80.96
48267;BME280;34088;52.232;5.196;2023-07-20T02:35:31;101506.22;;;15.47;80.92
48267;BME280;34088;52.232;5.196;2023-07-20T02:37:56;101502.13;;;15.41;81.60
48267;BME280;34088;52.232;5.196;2023-07-20T02:40:22;101502.50;;;15.32;81.91
48267;BME280;34088;52.232;5.196;2023-07-20T02:42:47;101509.81;;;15.44;81.45
48267;BME280;34088;52.232;5.196;2023-07-20T02:45:13;101502.94;;;15.42;80.59
48267;BME280;34088;52.232;5.196;2023-07-20T02:47:38;101499.50;;;15.41;81.35
48267;BME280;34088;52.232;5.196;2023-07-20T02:50:08;101509.16;;;15.39;81.54
48267;BME280;34088;52.232;5.196;2023-07-20T02:52:34;101501.25;;;15.41;80.59
48267;BME280;34088;52.232;5.196;2023-07-20T02:54:59;101513.38;;;15.42;80.37
48267;BME280;34088;52.232;5.196;2023-07-20T02:57:24;101517.03;;;15.38;80.80
48267;BME280;34088;52.232;5.196;2023-07-20T02:59:50;101517.28;;;15.32;81.42
48267;BME280;34088;52.232;5.196;2023-07-20T03:02:15;101525.19;;;15.30;81.68
48267;BME280;34088;52.232;5.196;2023-07-20T03:04:40;101524.31;;;15.30;81.27
48267;BME280;34088;52.232;5.196;2023-07-20T03:07:06;101529.59;;;15.28;81.08
48267;BME280;34088;52.232;5.196;2023-07-20T03:09:32;101527.50;;;15.16;81.48
48267;BME280;34088;52.232;5.196;2023-07-20T03:11:57;101532.91;;;15.33;80.35
48267;BME280;34088;52.232;5.196;2023-07-20T03:14:23;101529.69;;;15.27;80.62
48267;BME280;34088;52.232;5.196;2023-07-20T03:16:48;101534.38;;;15.19;81.48
48267;BME280;34088;52.232;5.196;2023-07-20T03:19:14;101540.38;;;15.21;81.54
48267;BME280;34088;52.232;5.196;2023-07-20T03:21:39;101534.50;;;15.16;81.62
48267;BME280;34088;52.232;5.196;2023-07-20T03:24:07;101542.34;;;15.16;81.96
48267;BME280;34088;52.232;5.196;2023-07-20T03:26:33;101538.81;;;15.17;82.25
48267;BME280;34088;52.232;5.196;2023-07-20T03:28:58;101538.25;;;15.09;82.74
48267;BME280;34088;52.232;5.196;2023-07-20T03:31:23;101534.94;;;15.05;82.54
48267;BME280;34088;52.232;5.196;2023-07-20T03:33:49;101535.66;;;15.09;82.42
48267;BME280;34088;52.232;5.196;2023-07-20T03:36:14;101541.38;;;15.18;80.97
48267;BME280;34088;52.232;5.196;2023-07-20T03:38:39;101548.22;;;14.99;82.15
48267;BME280;34088;52.232;5.196;2023-07-20T03:41:04;101542.66;;;15.08;81.77
48267;BME280;34088;52.232;5.196;2023-07-20T03:43:30;101547.22;;;15.03;81.95
48267;BME280;34088;52.232;5.196;2023-07-20T03:45:55;101543.81;;;15.01;81.89
48267;BME280;34088;52.232;5.196;2023-07-20T03:48:23;101546.19;;;15.07;81.79
48267;BME280;34088;52.232;5.196;2023-07-20T03:50:49;101549.22;;;14.97;82.08
48267;BME280;34088;52.232;5.196;2023-07-20T03:53:15;101552.53;;;15.00;81.51
48267;BME280;34088;52.232;5.196;2023-07-20T03:55:41;101549.81;;;15.03;82.09
48267;BME280;34088;52.232;5.196;2023-07-20T03:58:07;101551.44;;;15.06;81.34
48267;BME280;34088;52.232;5.196;2023-07-20T04:00:34;101545.38;;;15.05;81.28
48267;BME280;34088;52.232;5.196;2023-07-20T04:02:59;101546.50;;;15.00;81.54
48267;BME280;34088;52.232;5.196;2023-07-20T04:05:24;101547.25;;;15.02;81.35
48267;BME280;34088;52.232;5.196;2023-07-20T04:07:50;101550.06;;;14.97;81.19
48267;BME280;34088;52.232;5.196;2023-07-20T04:10:16;101557.16;;;14.94;81.28
48267;BME280;34088;52.232;5.196;2023-07-20T04:12:41;101554.16;;;15.03;80.50
48267;BME280;34088;52.232;5.196;2023-07-20T04:15:07;101560.97;;;15.07;80.41
48267;BME280;34088;52.232;5.196;2023-07-20T04:17:33;101554.25;;;15.01;80.55
48267;BME280;34088;52.232;5.196;2023-07-20T04:19:58;101552.88;;;14.93;81.39
48267;BME280;34088;52.232;5.196;2023-07-20T04:22:23;101558.59;;;15.01;80.63
48267;BME280;34088;52.232;5.196;2023-07-20T04:24:48;101562.38;;;14.94;79.83
48267;BME280;34088;52.232;5.196;2023-07-20T04:27:13;101566.75;;;14.93;80.63
48267;BME280;34088;52.232;5.196;2023-07-20T04:29:39;101568.81;;;14.85;80.88
48267;BME280;34088;52.232;5.196;2023-07-20T04:32:04;101568.81;;;14.85;80.35
48267;BME280;34088;52.232;5.196;2023-07-20T04:34:30;101567.13;;;14.84;80.88
48267;BME280;34088;52.232;5.196;2023-07-20T04:36:55;101579.88;;;14.92;80.10
48267;BME280;34088;52.232;5.196;2023-07-20T04:39:20;101579.00;;;14.91;80.03
48267;BME280;34088;52.232;5.196;2023-07-20T04:41:46;101571.47;;;14.84;80.44
48267;BME280;34088;52.232;5.196;2023-07-20T04:44:11;101579.00;;;14.91;79.81
48267;BME280;34088;52.232;5.196;2023-07-20T04:46:36;101567.00;;;14.87;79.70
48267;BME280;34088;52.232;5.196;2023-07-20T04:49:01;101572.41;;;15.03;80.18
48267;BME280;34088;52.232;5.196;2023-07-20T04:51:27;101575.22;;;14.98;79.93
48267;BME280;34088;52.232;5.196;2023-07-20T04:53:55;101591.19;;;14.91;80.76
48267;BME280;34088;52.232;5.196;2023-07-20T04:56:20;101585.91;;;14.92;80.66
48267;BME280;34088;52.232;5.196;2023-07-20T04:58:48;101585.72;;;14.97;80.19
48267;BME280;34088;52.232;5.196;2023-07-20T05:01:13;101584.50;;;15.05;79.76
48267;BME280;34088;52.232;5.196;2023-07-20T05:03:38;101590.16;;;15.15;79.93
48267;BME280;34088;52.232;5.196;2023-07-20T05:06:03;101575.31;;;15.17;79.44
48267;BME280;34088;52.232;5.196;2023-07-20T05:08:29;101577.88;;;15.18;78.79
48267;BME280;34088;52.232;5.196;2023-07-20T05:10:54;101585.69;;;15.18;78.92
48267;BME280;34088;52.232;5.196;2023-07-20T05:13:19;101580.94;;;15.28;78.87
48267;BME280;34088;52.232;5.196;2023-07-20T05:15:45;101586.19;;;15.48;77.31
48267;BME280;34088;52.232;5.196;2023-07-20T05:18:10;101578.38;;;15.48;77.04
48267;BME280;34088;52.232;5.196;2023-07-20T05:20:35;101592.97;;;15.52;76.42
48267;BME280;34088;52.232;5.196;2023-07-20T05:23:02;101587.00;;;15.28;78.11
48267;BME280;34088;52.232;5.196;2023-07-20T05:25:27;101590.31;;;15.53;76.42
48267;BME280;34088;52.232;5.196;2023-07-20T05:27:52;101585.94;;;15.54;76.90
48267;BME280;34088;52.232;5.196;2023-07-20T05:30:20;101593.19;;;15.47;76.84
48267;BME280;34088;52.232;5.196;2023-07-20T05:32:45;101588.22;;;15.61;76.57
48267;BME280;34088;52.232;5.196;2023-07-20T05:35:16;101592.03;;;15.73;76.30
48267;BME280;34088;52.232;5.196;2023-07-20T05:37:42;101596.44;;;15.72;75.40
48267;BME280;34088;52.232;5.196;2023-07-20T05:40:07;101594.53;;;15.76;75.40
48267;BME280;34088;52.232;5.196;2023-07-20T05:42:33;101585.38;;;15.86;75.07
48267;BME280;34088;52.232;5.196;2023-07-20T05:44:58;101589.75;;;15.85;74.97
48267;BME280;34088;52.232;5.196;2023-07-20T05:47:23;101593.00;;;15.90;75.10
48267;BME280;34088;52.232;5.196;2023-07-20T05:49:49;101584.00;;;16.16;74.62
48267;BME280;34088;52.232;5.196;2023-07-20T05:52:14;101591.50;;;16.42;73.85
48267;BME280;34088;52.232;5.196;2023-07-20T05:54:39;101589.44;;;16.30;74.21
48267;BME280;34088;52.232;5.196;2023-07-20T05:57:05;101586.63;;;16.16;74.02
48267;BME280;34088;52.232;5.196;2023-07-20T05:59:30;101591.41;;;16.25;73.89
48267;BME280;34088;52.232;5.196;2023-07-20T06:01:56;101590.13;;;16.33;73.35
48267;BME280;34088;52.232;5.196;2023-07-20T06:04:22;101583.91;;;16.36;73.04
48267;BME280;34088;52.232;5.196;2023-07-20T06:06:47;101591.59;;;16.40;73.25
48267;BME280;34088;52.232;5.196;2023-07-20T06:09:13;101585.00;;;16.50;72.65
48267;BME280;34088;52.232;5.196;2023-07-20T06:11:38;101593.72;;;16.51;73.13
48267;BME280;34088;52.232;5.196;2023-07-20T06:14:04;101584.09;;;16.51;72.50
48267;BME280;34088;52.232;5.196;2023-07-20T06:16:29;101594.88;;;16.62;72.40
48267;BME280;34088;52.232;5.196;2023-07-20T06:18:55;101599.00;;;16.68;71.94
48267;BME280;34088;52.232;5.196;2023-07-20T06:21:20;101601.50;;;16.52;71.50
48267;BME280;34088;52.232;5.196;2023-07-20T06:23:45;101596.16;;;16.72;71.18
48267;BME280;34088;52.232;5.196;2023-07-20T06:26:11;101603.56;;;16.81;70.27
48267;BME280;34088;52.232;5.196;2023-07-20T06:28:36;101609.78;;;16.79;69.42
48267;BME280;34088;52.232;5.196;2023-07-20T06:31:02;101611.47;;;16.80;69.20
48267;BME280;34088;52.232;5.196;2023-07-20T06:33:28;101610.78;;;16.76;69.65
48267;BME280;34088;52.232;5.196;2023-07-20T06:35:53;101604.84;;;16.73;68.90
48267;BME280;34088;52.232;5.196;2023-07-20T06:38:19;101597.41;;;16.82;68.26
48267;BME280;34088;52.232;5.196;2023-07-20T06:40:47;101590.78;;;16.92;68.89
48267;BME280;34088;52.232;5.196;2023-07-20T06:43:12;101602.81;;;16.96;67.77
48267;BME280;34088;52.232;5.196;2023-07-20T06:45:38;101595.66;;;17.00;67.67
48267;BME280;34088;52.232;5.196;2023-07-20T06:48:03;101606.53;;;17.09;67.11
48267;BME280;34088;52.232;5.196;2023-07-20T06:50:29;101611.97;;;17.05;66.46
48267;BME280;34088;52.232;5.196;2023-07-20T06:52:54;101613.88;;;17.20;67.25
48267;BME280;34088;52.232;5.196;2023-07-20T06:55:19;101610.56;;;17.33;65.61
48267;BME280;34088;52.232;5.196;2023-07-20T06:57:44;101618.72;;;17.27;65.90
48267;BME280;34088;52.232;5.196;2023-07-20T07:00:10;101623.66;;;17.33;65.58
48267;BME280;34088;52.232;5.196;2023-07-20T07:02:36;101620.47;;;17.10;64.88
48267;BME280;34088;52.232;5.196;2023-07-20T07:05:01;101617.41;;;17.19;66.17
48267;BME280;34088;52.232;5.196;2023-07-20T07:07:27;101621.53;;;17.23;64.80
48267;BME280;34088;52.232;5.196;2023-07-20T07:09:52;101629.25;;;17.26;64.55
48267;BME280;34088;52.232;5.196;2023-07-20T07:12:17;101623.78;;;17.30;65.47
48267;BME280;34088;52.232;5.196;2023-07-20T07:14:42;101631.06;;;17.42;62.70
48267;BME280;34088;52.232;5.196;2023-07-20T07:17:08;101627.50;;;17.43;60.24
48267;BME280;34088;52.232;5.196;2023-07-20T07:19:33;101629.94;;;17.29;59.54
48267;BME280;34088;52.232;5.196;2023-07-20T07:21:59;101615.91;;;17.49;60.87
48267;BME280;34088;52.232;5.196;2023-07-20T07:24:24;101623.06;;;17.62;62.00
48267;BME280;34088;52.232;5.196;2023-07-20T07:26:49;101616.78;;;17.65;61.44
48267;BME280;34088;52.232;5.196;2023-07-20T07:29:14;101623.66;;;17.50;61.02
48267;BME280;34088;52.232;5.196;2023-07-20T07:31:40;101625.44;;;17.67;61.68
48267;BME280;34088;52.232;5.196;2023-07-20T07:34:05;101615.16;;;17.79;60.68
48267;BME280;34088;52.232;5.196;2023-07-20T07:36:31;101617.72;;;17.81;60.50
48267;BME280;34088;52.232;5.196;2023-07-20T07:38:57;101621.22;;;17.97;60.11
48267;BME280;34088;52.232;5.196;2023-07-20T07:41:22;101617.25;;;17.90;59.90
48267;BME280;34088;52.232;5.196;2023-07-20T07:43:48;101622.22;;;17.94;58.25
48267;BME280;34088;52.232;5.196;2023-07-20T07:46:13;101627.94;;;17.85;58.65
48267;BME280;34088;52.232;5.196;2023-07-20T07:48:39;101628.03;;;17.84;57.52
48267;BME280;34088;52.232;5.196;2023-07-20T07:51:04;101622.47;;;17.90;58.34
48267;BME280;34088;52.232;5.196;2023-07-20T07:53:30;101627.75;;;18.05;57.44
48267;BME280;34088;52.232;5.196;2023-07-20T07:55:57;101631.09;;;18.24;59.14
48267;BME280;34088;52.232;5.196;2023-07-20T07:58:23;101632.69;;;18.11;55.66
48267;BME280;34088;52.232;5.196;2023-07-20T08:00:48;101632.09;;;18.22;58.28
48267;BME280;34088;52.232;5.196;2023-07-20T08:03:13;101630.34;;;18.22;55.29
48267;BME280;34088;52.232;5.196;2023-07-20T08:05:39;101638.19;;;18.22;57.22
48267;BME280;34088;52.232;5.196;2023-07-20T08:08:04;101633.88;;;18.38;55.49
48267;BME280;34088;52.232;5.196;2023-07-20T08:10:30;101632.16;;;18.37;54.78
48267;BME280;34088;52.232;5.196;2023-07-20T08:12:55;101622.88;;;18.47;54.55
48267;BME280;34088;52.232;5.196;2023-07-20T08:15:21;101626.09;;;18.52;54.74
48267;BME280;34088;52.232;5.196;2023-07-20T08:17:46;101618.06;;;18.55;51.96
48267;BME280;34088;52.232;5.196;2023-07-20T08:20:14;101625.34;;;18.66;54.69
48267;BME280;34088;52.232;5.196;2023-07-20T08:22:41;101623.72;;;18.63;49.81
48267;BME280;34088;52.232;5.196;2023-07-20T08:25:07;101624.56;;;18.79;53.27
48267;BME280;34088;52.232;5.196;2023-07-20T08:27:32;101620.66;;;18.86;52.69
48267;BME280;34088;52.232;5.196;2023-07-20T08:29:57;101627.63;;;18.72;52.39
48267;BME280;34088;52.232;5.196;2023-07-20T08:32:23;101618.03;;;18.86;52.40
48267;BME280;34088;52.232;5.196;2023-07-20T08:34:48;101623.84;;;19.07;50.76
48267;BME280;34088;52.232;5.196;2023-07-20T08:37:13;101624.31;;;19.13;50.86
48267;BME280;34088;52.232;5.196;2023-07-20T08:39:38;101626.16;;;18.97;50.82
48267;BME280;34088;52.232;5.196;2023-07-20T08:42:05;101627.28;;;18.78;50.67
48267;BME280;34088;52.232;5.196;2023-07-20T08:44:35;101631.81;;;19.05;51.05
48267;BME280;34088;52.232;5.196;2023-07-20T08:47:02;101626.75;;;19.02;51.56
48267;BME280;34088;52.232;5.196;2023-07-20T08:49:31;101626.03;;;19.30;51.23
48267;BME280;34088;52.232;5.196;2023-07-20T08:51:57;101626.00;;;19.45;50.96
48267;BME280;34088;52.232;5.196;2023-07-20T08:54:24;101623.78;;;19.08;50.31
48267;BME280;34088;52.232;5.196;2023-07-20T08:56:53;101632.97;;;19.15;51.18
48267;BME280;34088;52.232;5.196;2023-07-20T08:59:20;101624.06;;;19.33;51.70
48267;BME280;34088;52.232;5.196;2023-07-20T09:01:48;101624.09;;;19.47;50.37
48267;BME280;34088;52.232;5.196;2023-07-20T09:04:13;101634.38;;;19.52;49.95
48267;BME280;34088;52.232;5.196;2023-07-20T09:06:39;101638.41;;;19.71;50.49
48267;BME280;34088;52.232;5.196;2023-07-20T09:09:04;101643.31;;;19.77;47.76
48267;BME280;34088;52.232;5.196;2023-07-20T09:11:30;101630.06;;;19.79;45.59
48267;BME280;34088;52.232;5.196;2023-07-20T09:14:06;101621.78;;;20.14;46.65
48267;BME280;34088;52.232;5.196;2023-07-20T09:16:32;101622.13;;;20.50;44.48
48267;BME280;34088;52.232;5.196;2023-07-20T09:18:58;101619.19;;;20.69;43.81
48267;BME280;34088;52.232;5.196;2023-07-20T09:21:23;101629.91;;;21.19;48.25
48267;BME280;34088;52.232;5.196;2023-07-20T09:23:56;101618.56;;;21.18;43.79
48267;BME280;34088;52.232;5.196;2023-07-20T09:26:22;101613.88;;;21.09;44.79
48267;BME280;34088;52.232;5.196;2023-07-20T09:28:49;101616.72;;;21.58;42.38
48267;BME280;34088;52.232;5.196;2023-07-20T09:31:20;101628.91;;;21.85;44.17
48267;BME280;34088;52.232;5.196;2023-07-20T09:33:49;101626.88;;;22.26;43.23
48267;BME280;34088;52.232;5.196;2023-07-20T09:36:16;101625.63;;;22.19;40.28
48267;BME280;34088;52.232;5.196;2023-07-20T09:38:42;101614.22;;;22.19;38.15
48267;BME280;34088;52.232;5.196;2023-07-20T09:41:13;101627.09;;;22.23;38.10
48267;BME280;34088;52.232;5.196;2023-07-20T09:43:38;101612.31;;;22.46;38.78
48267;BME280;34088;52.232;5.196;2023-07-20T09:46:05;101615.53;;;22.85;40.09
48267;BME280;34088;52.232;5.196;2023-07-20T09:48:30;101622.75;;;22.35;38.92
48267;BME280;34088;52.232;5.196;2023-07-20T09:50:55;101620.59;;;21.79;38.87
48267;BME280;34088;52.232;5.196;2023-07-20T09:53:21;101607.72;;;21.99;37.58
48267;BME280;34088;52.232;5.196;2023-07-20T09:55:49;101617.59;;;21.58;38.43
48267;BME280;34088;52.232;5.196;2023-07-20T09:58:16;101611.53;;;21.70;38.59
48267;BME280;34088;52.232;5.196;2023-07-20T10:00:42;101612.34;;;22.08;38.84
48267;BME280;34088;52.232;5.196;2023-07-20T10:03:14;101605.00;;;22.49;38.32
48267;BME280;34088;52.232;5.196;2023-07-20T10:05:44;101599.81;;;23.07;38.04
48267;BME280;34088;52.232;5.196;2023-07-20T10:08:12;101601.56;;;22.72;37.74
48267;BME280;34088;52.232;5.196;2023-07-20T10:10:38;101603.97;;;22.39;37.77
48267;BME280;34088;52.232;5.196;2023-07-20T10:13:05;101595.94;;;22.77;37.74
48267;BME280;34088;52.232;5.196;2023-07-20T10:15:45;101593.69;;;23.07;38.34
48267;BME280;34088;52.232;5.196;2023-07-20T10:20:47;101594.25;;;23.57;39.83
48267;BME280;34088;52.232;5.196;2023-07-20T10:23:14;101586.94;;;23.26;37.95
48267;BME280;34088;52.232;5.196;2023-07-20T10:25:40;101582.59;;;23.25;38.52
48267;BME280;34088;52.232;5.196;2023-07-20T10:28:07;101590.34;;;23.39;38.18
48267;BME280;34088;52.232;5.196;2023-07-20T10:30:34;101587.28;;;23.56;37.03
48267;BME280;34088;52.232;5.196;2023-07-20T10:33:00;101578.53;;;23.32;36.81
48267;BME280;34088;52.232;5.196;2023-07-20T10:35:28;101587.38;;;23.20;37.49
48267;BME280;34088;52.232;5.196;2023-07-20T10:37:54;101581.28;;;22.73;36.61
48267;BME280;34088;52.232;5.196;2023-07-20T10:40:31;101577.13;;;23.16;36.57
48267;BME280;34088;52.232;5.196;2023-07-20T10:43:07;101584.56;;;23.11;38.74
48267;BME280;34088;52.232;5.196;2023-07-20T10:45:39;101577.59;;;22.75;37.68
48267;BME280;34088;52.232;5.196;2023-07-20T10:48:06;101567.06;;;22.86;35.70
48267;BME280;34088;52.232;5.196;2023-07-20T10:50:37;101567.63;;;22.79;35.03
48267;BME280;34088;52.232;5.196;2023-07-20T10:53:17;101579.38;;;22.51;37.24
48267;BME280;34088;52.232;5.196;2023-07-20T10:55:43;101574.38;;;22.59;35.89
48267;BME280;34088;52.232;5.196;2023-07-20T10:58:11;101574.69;;;22.78;37.10
48267;BME280;34088;52.232;5.196;2023-07-20T11:00:37;101577.44;;;22.53;36.42
48267;BME280;34088;52.232;5.196;2023-07-20T11:03:04;101574.28;;;22.48;38.54
48267;BME280;34088;52.232;5.196;2023-07-20T11:05:39;101578.41;;;22.40;39.13
48267;BME280;34088;52.232;5.196;2023-07-20T11:08:07;101577.41;;;22.17;39.71
48267;BME280;34088;52.232;5.196;2023-07-20T11:10:34;101575.25;;;22.35;39.18
48267;BME280;34088;52.232;5.196;2023-07-20T11:13:22;101580.13;;;22.28;40.05
48267;BME280;34088;52.232;5.196;2023-07-20T11:18:25;101572.91;;;22.43;40.86
48267;BME280;34088;52.232;5.196;2023-07-20T11:20:51;101568.69;;;22.53;39.92
48267;BME280;34088;52.232;5.196;2023-07-20T11:23:16;101566.66;;;22.56;40.90
48267;BME280;34088;52.232;5.196;2023-07-20T11:25:42;101572.13;;;22.66;39.58
48267;BME280;34088;52.232;5.196;2023-07-20T11:28:08;101560.38;;;22.70;38.91
48267;BME280;34088;52.232;5.196;2023-07-20T11:30:35;101562.50;;;22.88;38.63
48267;BME280;34088;52.232;5.196;2023-07-20T11:33:00;101559.97;;;23.10;40.42
48267;BME280;34088;52.232;5.196;2023-07-20T11:35:26;101550.63;;;22.94;38.96
48267;BME280;34088;52.232;5.196;2023-07-20T11:37:51;101561.13;;;23.06;39.39
48267;BME280;34088;52.232;5.196;2023-07-20T11:40:16;101557.03;;;23.02;38.40
48267;BME280;34088;52.232;5.196;2023-07-20T11:42:42;101551.06;;;23.11;39.15
48267;BME280;34088;52.232;5.196;2023-07-20T11:45:09;101556.56;;;23.32;38.45
48267;BME280;34088;52.232;5.196;2023-07-20T11:47:40;101545.75;;;23.24;39.36
48267;BME280;34088;52.232;5.196;2023-07-20T11:50:05;101550.47;;;23.53;39.50
48267;BME280;34088;52.232;5.196;2023-07-20T11:52:31;101553.31;;;23.05;38.94
48267;BME280;34088;52.232;5.196;2023-07-20T11:54:57;101549.31;;;22.88;38.87
48267;BME280;34088;52.232;5.196;2023-07-20T11:57:23;101545.16;;;23.31;40.45
48267;BME280;34088;52.232;5.196;2023-07-20T11:59:57;101541.53;;;23.21;37.88
48267;BME280;34088;52.232;5.196;2023-07-20T12:02:24;101532.97;;;23.18;37.67
48267;BME280;34088;52.232;5.196;2023-07-20T12:04:51;101533.63;;;23.21;38.43
48267;BME280;34088;52.232;5.196;2023-07-20T12:07:18;101538.97;;;22.85;38.80
48267;BME280;34088;52.232;5.196;2023-07-20T12:09:44;101531.69;;;23.23;40.00
48267;BME280;34088;52.232;5.196;2023-07-20T12:12:10;101544.22;;;23.43;38.13
48267;BME280;34088;52.232;5.196;2023-07-20T12:14:38;101532.22;;;23.16;39.64
48267;BME280;34088;52.232;5.196;2023-07-20T12:17:03;101536.06;;;23.57;39.69
48267;BME280;34088;52.232;5.196;2023-07-20T12:19:29;101526.34;;;23.79;39.08
48267;BME280;34088;52.232;5.196;2023-07-20T12:21:57;101523.81;;;23.56;40.11
48267;BME280;34088;52.232;5.196;2023-07-20T12:24:26;101533.88;;;23.06;38.96
48267;BME280;34088;52.232;5.196;2023-07-20T12:26:56;101529.03;;;22.65;39.90
48267;BME280;34088;52.232;5.196;2023-07-20T12:29:23;101524.06;;;22.84;39.52
48267;BME280;34088;52.232;5.196;2023-07-20T12:31:48;101524.72;;;23.22;39.69
48267;BME280;34088;52.232;5.196;2023-07-20T12:34:13;101521.78;;;23.71;38.10
48267;BME280;34088;52.232;5.196;2023-07-20T12:36:38;101515.88;;;23.78;38.76
48267;BME280;34088;52.232;5.196;2023-07-20T12:39:04;101527.91;;;23.15;38.49
48267;BME280;34088;52.232;5.196;2023-07-20T12:41:30;101527.00;;;23.27;39.63
48267;BME280;34088;52.232;5.196;2023-07-20T12:43:56;101513.38;;;23.09;38.80
48267;BME280;34088;52.232;5.196;2023-07-20T12:46:23;101517.53;;;23.35;37.85
48267;BME280;34088;52.232;5.196;2023-07-20T12:48:49;101518.41;;;23.12;39.67
48267;BME280;34088;52.232;5.196;2023-07-20T12:51:14;101514.81;;;23.13;39.34
48267;BME280;34088;52.232;5.196;2023-07-20T12:53:39;101522.19;;;22.97;39.59
48267;BME280;34088;52.232;5.196;2023-07-20T12:56:05;101516.34;;;22.70;40.25
48267;BME280;34088;52.232;5.196;2023-07-20T12:58:30;101519.72;;;22.72;39.94
48267;BME280;34088;52.232;5.196;2023-07-20T13:00:56;101517.00;;;22.61;39.97
48267;BME280;34088;52.232;5.196;2023-07-20T13:03:21;101516.66;;;22.42;40.77
48267;BME280;34088;52.232;5.196;2023-07-20T13:05:47;101512.03;;;22.33;41.54
48267;BME280;34088;52.232;5.196;2023-07-20T13:08:12;101513.94;;;22.44;41.08
48267;BME280;34088;52.232;5.196;2023-07-20T13:10:38;101508.72;;;22.89;39.96